Portada
METAR-TAF:

METAR-TAF

Aeropuertos :

Aeropuerto Ejecutivo Gatineau-Ottawa

Gatineau, Quebec, Canadá

latitud: 45-31N, longitud: 075-34W, altitud: 64 m

Observación

El informe se hizo hace 50 minutos, a las 01:00 UTC
Viento 10 kt del este con ráfagas de 16 kt
Temperatura 9°C
Humedad 61%
Presión 1031 hPa
Visibilidad: 24.1 km
Nubes dispersas a una altura de 24000 ft

METAR: CYND 250100Z 08010G16KT 15SM SCT240 09/02 A3044 RMK CI4 LAST STFD OBS/NEXT 251100 UTC SLP310

Hora: 21:50 (01:50 UTC)

Pronóstico

El informe se hizo hace 8 horas y 8 minutos, a las 17:42 UTC
Pronóstico válido del 24 a las 18 UTC al 25 a las 01 UTC
Viento 12 kt del este con ráfagas de 22 kt
Visibilidad: 10 km
Nubes dispersas a una altura de 24000 ft
Evolucionando progresivamente
del 24 a las 21 UTC al 24 a las 23 UTC
Viento 8 kt del este

TAF: CYND 241742Z 2418/2501 09012G22KT P6SM SCT240 BECMG 2421/2423 08008KT RMK NXT FCST WILL BE ISSUED AT 251245Z

Observaciones y pronósticos meteorológicos de más de 4000 aeropuertos (mensajes METAR y TAF).

Los puntos amarillos y rojos representan las estaciones disponibles.

Ponga el ratón en el punto deseado para ver el nombre de la estación.

Haga clic para ver las observaciones y los pronósticos meteorológicos.

Para cambiar el mapa : haga clic en los botones verdes con una cruz de color negro para hacer un zoom, en el botón verde con un guión para alejar o en las flechas verdes para mapas adyacentes.


METAR-TAF: